sensor_id;sensor_type;location;lat;lon;timestamp;temperature;humidity
3896;DHT22;1963;48.804;8.358;2022-12-11T00:01:59;-1.20;99.90
3896;DHT22;1963;48.804;8.358;2022-12-11T00:04:27;-1.30;99.90
3896;DHT22;1963;48.804;8.358;2022-12-11T00:06:56;-1.30;99.90
3896;DHT22;1963;48.804;8.358;2022-12-11T00:09:25;-1.30;99.90
3896;DHT22;1963;48.804;8.358;2022-12-11T00:11:53;-1.30;99.90
3896;DHT22;1963;48.804;8.358;2022-12-11T00:14:22;-1.20;99.90
3896;DHT22;1963;48.804;8.358;2022-12-11T00:16:49;-1.20;99.90
3896;DHT22;1963;48.804;8.358;2022-12-11T00:19:17;-1.20;99.90
3896;DHT22;1963;48.804;8.358;2022-12-11T00:21:45;-1.10;99.90
3896;DHT22;1963;48.804;8.358;2022-12-11T00:24:13;-1.10;99.90
3896;DHT22;1963;48.804;8.358;2022-12-11T00:26:43;-1.00;99.90
3896;DHT22;1963;48.804;8.358;2022-12-11T00:29:11;-1.00;99.90
3896;DHT22;1963;48.804;8.358;2022-12-11T00:31:40;-0.90;99.90
3896;DHT22;1963;48.804;8.358;2022-12-11T00:34:08;-0.90;99.90
3896;DHT22;1963;48.804;8.358;2022-12-11T00:36:37;-0.80;99.90
3896;DHT22;1963;48.804;8.358;2022-12-11T00:39:06;-0.70;99.90
3896;DHT22;1963;48.804;8.358;2022-12-11T00:41:34;-0.70;99.90
3896;DHT22;1963;48.804;8.358;2022-12-11T00:44:03;-0.60;99.90
3896;DHT22;1963;48.804;8.358;2022-12-11T00:46:31;-0.50;99.90
3896;DHT22;1963;48.804;8.358;2022-12-11T00:49:00;-0.50;99.90
3896;DHT22;1963;48.804;8.358;2022-12-11T00:51:28;-0.40;99.90
3896;DHT22;1963;48.804;8.358;2022-12-11T00:53:56;-0.40;99.90
3896;DHT22;1963;48.804;8.358;2022-12-11T00:56:24;-0.30;99.90
3896;DHT22;1963;48.804;8.358;2022-12-11T00:58:52;-0.30;99.90
3896;DHT22;1963;48.804;8.358;2022-12-11T01:01:23;-0.20;99.90
3896;DHT22;1963;48.804;8.358;2022-12-11T01:03:52;-0.10;99.90
3896;DHT22;1963;48.804;8.358;2022-12-11T01:06:22;-0.20;99.90
3896;DHT22;1963;48.804;8.358;2022-12-11T01:08:51;-0.10;99.90
3896;DHT22;1963;48.804;8.358;2022-12-11T01:11:40;-0.10;99.90
3896;DHT22;1963;48.804;8.358;2022-12-11T01:14:08;0.00;99.90
3896;DHT22;1963;48.804;8.358;2022-12-11T01:16:38;0.00;99.90
3896;DHT22;1963;48.804;8.358;2022-12-11T01:19:07;0.10;99.90
3896;DHT22;1963;48.804;8.358;2022-12-11T01:21:37;0.20;99.90
3896;DHT22;1963;48.804;8.358;2022-12-11T01:24:05;0.20;99.90
3896;DHT22;1963;48.804;8.358;2022-12-11T01:26:33;0.20;99.90
3896;DHT22;1963;48.804;8.358;2022-12-11T01:29:01;0.30;99.90
3896;DHT22;1963;48.804;8.358;2022-12-11T01:31:30;0.30;99.90
3896;DHT22;1963;48.804;8.358;2022-12-11T01:33:59;0.30;99.90
3896;DHT22;1963;48.804;8.358;2022-12-11T01:36:27;0.40;99.90
3896;DHT22;1963;48.804;8.358;2022-12-11T01:38:55;0.30;99.90
3896;DHT22;1963;48.804;8.358;2022-12-11T01:41:23;0.40;99.90
3896;DHT22;1963;48.804;8.358;2022-12-11T01:44:02;0.40;99.90
3896;DHT22;1963;48.804;8.358;2022-12-11T01:46:32;0.50;99.90
3896;DHT22;1963;48.804;8.358;2022-12-11T01:49:05;0.50;99.90
3896;DHT22;1963;48.804;8.358;2022-12-11T01:51:38;0.50;99.90
3896;DHT22;1963;48.804;8.358;2022-12-11T01:54:09;0.60;99.90
3896;DHT22;1963;48.804;8.358;2022-12-11T01:56:41;0.60;99.90
3896;DHT22;1963;48.804;8.358;2022-12-11T01:59:10;0.60;99.90
3896;DHT22;1963;48.804;8.358;2022-12-11T02:01:43;0.60;99.90
3896;DHT22;1963;48.804;8.358;2022-12-11T02:04:13;0.60;99.90
3896;DHT22;1963;48.804;8.358;2022-12-11T02:06:45;0.60;99.90
3896;DHT22;1963;48.804;8.358;2022-12-11T02:09:15;0.60;99.90
3896;DHT22;1963;48.804;8.358;2022-12-11T02:11:52;0.60;99.90
3896;DHT22;1963;48.804;8.358;2022-12-11T02:14:27;0.70;99.90
3896;DHT22;1963;48.804;8.358;2022-12-11T02:17:01;0.70;99.90
3896;DHT22;1963;48.804;8.358;2022-12-11T02:19:47;0.70;99.90
3896;DHT22;1963;48.804;8.358;2022-12-11T02:22:27;0.70;99.90
3896;DHT22;1963;48.804;8.358;2022-12-11T02:25:08;0.70;99.90
3896;DHT22;1963;48.804;8.358;2022-12-11T02:27:43;0.70;99.90
3896;DHT22;1963;48.804;8.358;2022-12-11T02:30:15;0.70;99.90
3896;DHT22;1963;48.804;8.358;2022-12-11T02:32:47;0.70;99.90
3896;DHT22;1963;48.804;8.358;2022-12-11T02:35:22;0.80;99.90
3896;DHT22;1963;48.804;8.358;2022-12-11T02:37:56;0.80;99.90
3896;DHT22;1963;48.804;8.358;2022-12-11T02:40:29;0.70;99.90
3896;DHT22;1963;48.804;8.358;2022-12-11T02:43:00;0.80;99.90
3896;DHT22;1963;48.804;8.358;2022-12-11T02:45:31;0.80;99.90
3896;DHT22;1963;48.804;8.358;2022-12-11T02:48:02;0.80;99.90
3896;DHT22;1963;48.804;8.358;2022-12-11T02:50:33;0.80;99.90
3896;DHT22;1963;48.804;8.358;2022-12-11T02:53:02;0.80;99.90
3896;DHT22;1963;48.804;8.358;2022-12-11T02:55:31;0.80;99.90
3896;DHT22;1963;48.804;8.358;2022-12-11T02:58:04;0.80;99.90
3896;DHT22;1963;48.804;8.358;2022-12-11T03:00:34;0.80;99.90
3896;DHT22;1963;48.804;8.358;2022-12-11T03:03:03;0.80;99.90
3896;DHT22;1963;48.804;8.358;2022-12-11T03:05:31;0.80;99.90
3896;DHT22;1963;48.804;8.358;2022-12-11T03:08:01;0.80;99.90
3896;DHT22;1963;48.804;8.358;2022-12-11T03:10:29;0.80;99.90
3896;DHT22;1963;48.804;8.358;2022-12-11T03:12:58;0.80;99.90
3896;DHT22;1963;48.804;8.358;2022-12-11T03:15:31;0.80;99.90
3896;DHT22;1963;48.804;8.358;2022-12-11T03:18:06;0.80;99.90
3896;DHT22;1963;48.804;8.358;2022-12-11T03:20:39;0.80;99.90
3896;DHT22;1963;48.804;8.358;2022-12-11T03:23:14;0.80;99.90
3896;DHT22;1963;48.804;8.358;2022-12-11T03:25:51;0.80;99.90
3896;DHT22;1963;48.804;8.358;2022-12-11T03:28:24;0.80;99.90
3896;DHT22;1963;48.804;8.358;2022-12-11T03:30:55;0.80;99.90
3896;DHT22;1963;48.804;8.358;2022-12-11T04:08:56;0.60;99.90
3896;DHT22;1963;48.804;8.358;2022-12-11T04:11:24;0.60;99.90
3896;DHT22;1963;48.804;8.358;2022-12-11T04:14:06;0.60;99.90
3896;DHT22;1963;48.804;8.358;2022-12-11T04:16:52;0.50;99.90
3896;DHT22;1963;48.804;8.358;2022-12-11T04:19:22;0.50;99.90
3896;DHT22;1963;48.804;8.358;2022-12-11T04:22:09;0.50;99.90
3896;DHT22;1963;48.804;8.358;2022-12-11T04:25:11;0.50;99.90
3896;DHT22;1963;48.804;8.358;2022-12-11T04:27:39;0.40;99.90
3896;DHT22;1963;48.804;8.358;2022-12-11T04:30:19;0.40;99.90
3896;DHT22;1963;48.804;8.358;2022-12-11T04:32:48;0.50;99.90
3896;DHT22;1963;48.804;8.358;2022-12-11T04:35:16;0.40;99.90
3896;DHT22;1963;48.804;8.358;2022-12-11T04:37:44;0.50;99.90
3896;DHT22;1963;48.804;8.358;2022-12-11T04:40:16;0.40;99.90
3896;DHT22;1963;48.804;8.358;2022-12-11T04:42:45;0.40;99.90
3896;DHT22;1963;48.804;8.358;2022-12-11T04:45:13;0.40;99.90
3896;DHT22;1963;48.804;8.358;2022-12-11T04:47:41;0.40;99.90
3896;DHT22;1963;48.804;8.358;2022-12-11T04:50:11;0.50;99.90
3896;DHT22;1963;48.804;8.358;2022-12-11T04:52:40;0.50;99.90
3896;DHT22;1963;48.804;8.358;2022-12-11T04:55:09;0.50;99.90
3896;DHT22;1963;48.804;8.358;2022-12-11T04:57:39;0.50;99.90
3896;DHT22;1963;48.804;8.358;2022-12-11T05:00:09;0.50;99.90
3896;DHT22;1963;48.804;8.358;2022-12-11T05:02:39;0.50;99.90
3896;DHT22;1963;48.804;8.358;2022-12-11T05:05:09;0.50;99.90
3896;DHT22;1963;48.804;8.358;2022-12-11T05:07:38;0.50;99.90
3896;DHT22;1963;48.804;8.358;2022-12-11T05:10:09;0.50;99.90
3896;DHT22;1963;48.804;8.358;2022-12-11T05:12:37;0.50;99.90
3896;DHT22;1963;48.804;8.358;2022-12-11T05:15:07;0.40;99.90
3896;DHT22;1963;48.804;8.358;2022-12-11T05:17:35;0.40;99.90
3896;DHT22;1963;48.804;8.358;2022-12-11T05:20:04;0.40;99.90
3896;DHT22;1963;48.804;8.358;2022-12-11T05:22:32;0.40;99.90
3896;DHT22;1963;48.804;8.358;2022-12-11T05:25:00;0.30;99.90
3896;DHT22;1963;48.804;8.358;2022-12-11T05:27:28;0.30;99.90
3896;DHT22;1963;48.804;8.358;2022-12-11T05:29:56;0.30;99.90
3896;DHT22;1963;48.804;8.358;2022-12-11T05:32:27;0.30;99.90
3896;DHT22;1963;48.804;8.358;2022-12-11T05:34:55;0.30;99.90
3896;DHT22;1963;48.804;8.358;2022-12-11T05:37:23;0.30;99.90
3896;DHT22;1963;48.804;8.358;2022-12-11T05:39:50;0.30;99.90
3896;DHT22;1963;48.804;8.358;2022-12-11T05:42:18;0.20;99.90
3896;DHT22;1963;48.804;8.358;2022-12-11T05:44:54;0.20;99.90
3896;DHT22;1963;48.804;8.358;2022-12-11T05:47:22;0.20;99.90
3896;DHT22;1963;48.804;8.358;2022-12-11T05:49:51;0.20;99.90
3896;DHT22;1963;48.804;8.358;2022-12-11T05:52:19;0.10;99.90
3896;DHT22;1963;48.804;8.358;2022-12-11T05:54:47;0.10;99.90
3896;DHT22;1963;48.804;8.358;2022-12-11T05:57:15;0.10;99.90
3896;DHT22;1963;48.804;8.358;2022-12-11T05:59:43;0.10;99.90
3896;DHT22;1963;48.804;8.358;2022-12-11T06:02:11;0.10;99.90
3896;DHT22;1963;48.804;8.358;2022-12-11T06:04:39;0.10;99.90
3896;DHT22;1963;48.804;8.358;2022-12-11T06:07:09;0.10;99.90
3896;DHT22;1963;48.804;8.358;2022-12-11T06:09:37;0.10;99.90
3896;DHT22;1963;48.804;8.358;2022-12-11T06:12:05;0.00;99.90
3896;DHT22;1963;48.804;8.358;2022-12-11T06:14:33;0.00;99.90
3896;DHT22;1963;48.804;8.358;2022-12-11T06:17:01;0.00;99.90
3896;DHT22;1963;48.804;8.358;2022-12-11T06:19:28;0.00;99.90
3896;DHT22;1963;48.804;8.358;2022-12-11T06:22:02;-0.10;99.90
3896;DHT22;1963;48.804;8.358;2022-12-11T06:24:32;-0.20;99.90
3896;DHT22;1963;48.804;8.358;2022-12-11T06:27:00;-0.20;99.90
3896;DHT22;1963;48.804;8.358;2022-12-11T06:29:27;-0.20;99.90
3896;DHT22;1963;48.804;8.358;2022-12-11T06:31:55;-0.20;99.90
3896;DHT22;1963;48.804;8.358;2022-12-11T06:34:23;-0.20;99.90
3896;DHT22;1963;48.804;8.358;2022-12-11T06:36:51;-0.10;99.90
3896;DHT22;1963;48.804;8.358;2022-12-11T06:39:19;-0.20;99.90
3896;DHT22;1963;48.804;8.358;2022-12-11T06:41:48;-0.20;99.90
3896;DHT22;1963;48.804;8.358;2022-12-11T06:44:16;-0.20;99.90
3896;DHT22;1963;48.804;8.358;2022-12-11T06:46:44;-0.20;99.90
3896;DHT22;1963;48.804;8.358;2022-12-11T06:49:12;-0.20;99.90
3896;DHT22;1963;48.804;8.358;2022-12-11T06:51:39;-0.20;99.90
3896;DHT22;1963;48.804;8.358;2022-12-11T06:54:07;-0.20;99.90
3896;DHT22;1963;48.804;8.358;2022-12-11T06:56:35;-0.20;99.90
3896;DHT22;1963;48.804;8.358;2022-12-11T06:59:04;-0.20;99.90
3896;DHT22;1963;48.804;8.358;2022-12-11T07:01:33;-0.20;99.90
3896;DHT22;1963;48.804;8.358;2022-12-11T07:04:01;-0.20;99.90
3896;DHT22;1963;48.804;8.358;2022-12-11T07:06:29;-0.10;99.90
3896;DHT22;1963;48.804;8.358;2022-12-11T07:08:57;-0.10;99.90
3896;DHT22;1963;48.804;8.358;2022-12-11T07:11:25;-0.10;99.90
3896;DHT22;1963;48.804;8.358;2022-12-11T07:13:52;-0.10;99.90
3896;DHT22;1963;48.804;8.358;2022-12-11T07:16:22;-0.10;99.90
3896;DHT22;1963;48.804;8.358;2022-12-11T07:18:50;-0.10;99.90
3896;DHT22;1963;48.804;8.358;2022-12-11T07:21:19;-0.10;99.90
3896;DHT22;1963;48.804;8.358;2022-12-11T07:23:47;-0.10;99.90
3896;DHT22;1963;48.804;8.358;2022-12-11T07:26:17;-0.10;99.90
3896;DHT22;1963;48.804;8.358;2022-12-11T07:28:45;-0.10;99.90
3896;DHT22;1963;48.804;8.358;2022-12-11T07:31:14;-0.10;99.90
3896;DHT22;1963;48.804;8.358;2022-12-11T07:33:44;-0.10;99.90
3896;DHT22;1963;48.804;8.358;2022-12-11T07:36:13;0.00;99.90
3896;DHT22;1963;48.804;8.358;2022-12-11T07:38:41;0.00;99.90
3896;DHT22;1963;48.804;8.358;2022-12-11T07:41:11;0.00;99.90
3896;DHT22;1963;48.804;8.358;2022-12-11T07:43:40;0.00;99.90
3896;DHT22;1963;48.804;8.358;2022-12-11T07:46:12;0.00;99.90
3896;DHT22;1963;48.804;8.358;2022-12-11T07:48:41;0.10;99.90
3896;DHT22;1963;48.804;8.358;2022-12-11T07:51:13;0.00;99.90
3896;DHT22;1963;48.804;8.358;2022-12-11T07:53:43;0.10;99.90
3896;DHT22;1963;48.804;8.358;2022-12-11T07:56:11;0.10;99.90
3896;DHT22;1963;48.804;8.358;2022-12-11T07:58:39;0.10;99.90
3896;DHT22;1963;48.804;8.358;2022-12-11T08:01:10;0.20;99.90
3896;DHT22;1963;48.804;8.358;2022-12-11T08:03:39;0.20;99.90
3896;DHT22;1963;48.804;8.358;2022-12-11T08:06:08;0.30;99.90
3896;DHT22;1963;48.804;8.358;2022-12-11T08:08:37;0.30;99.90
3896;DHT22;1963;48.804;8.358;2022-12-11T08:11:06;0.30;99.90
3896;DHT22;1963;48.804;8.358;2022-12-11T08:13:35;0.30;99.90
3896;DHT22;1963;48.804;8.358;2022-12-11T08:16:03;0.40;99.90
3896;DHT22;1963;48.804;8.358;2022-12-11T08:18:32;0.40;99.90
3896;DHT22;1963;48.804;8.358;2022-12-11T08:21:04;0.50;99.90
3896;DHT22;1963;48.804;8.358;2022-12-11T08:23:32;0.50;99.90
3896;DHT22;1963;48.804;8.358;2022-12-11T08:26:03;0.50;99.90
3896;DHT22;1963;48.804;8.358;2022-12-11T08:28:31;0.50;99.90
3896;DHT22;1963;48.804;8.358;2022-12-11T08:30:59;0.60;99.90
3896;DHT22;1963;48.804;8.358;2022-12-11T08:33:30;0.60;99.90
3896;DHT22;1963;48.804;8.358;2022-12-11T08:36:01;0.70;99.90
3896;DHT22;1963;48.804;8.358;2022-12-11T08:38:29;0.70;99.90
3896;DHT22;1963;48.804;8.358;2022-12-11T08:40:57;0.70;99.90
3896;DHT22;1963;48.804;8.358;2022-12-11T08:43:26;0.70;99.90
3896;DHT22;1963;48.804;8.358;2022-12-11T08:45:55;0.80;99.90
3896;DHT22;1963;48.804;8.358;2022-12-11T08:48:22;0.80;99.90
3896;DHT22;1963;48.804;8.358;2022-12-11T08:50:50;0.80;99.90
3896;DHT22;1963;48.804;8.358;2022-12-11T08:53:18;0.90;99.90
3896;DHT22;1963;48.804;8.358;2022-12-11T08:55:46;0.90;99.90
3896;DHT22;1963;48.804;8.358;2022-12-11T08:58:14;0.90;99.90
3896;DHT22;1963;48.804;8.358;2022-12-11T09:00:43;1.00;99.90
3896;DHT22;1963;48.804;8.358;2022-12-11T09:03:11;1.00;99.90
3896;DHT22;1963;48.804;8.358;2022-12-11T09:05:39;1.00;99.90
3896;DHT22;1963;48.804;8.358;2022-12-11T09:08:07;1.00;99.90
3896;DHT22;1963;48.804;8.358;2022-12-11T09:10:35;1.10;99.90
3896;DHT22;1963;48.804;8.358;2022-12-11T09:13:03;1.10;99.90
3896;DHT22;1963;48.804;8.358;2022-12-11T09:15:30;1.20;99.90
3896;DHT22;1963;48.804;8.358;2022-12-11T09:18:00;1.20;99.90
3896;DHT22;1963;48.804;8.358;2022-12-11T09:20:28;1.30;99.90
3896;DHT22;1963;48.804;8.358;2022-12-11T09:22:55;1.30;99.90
3896;DHT22;1963;48.804;8.358;2022-12-11T09:25:23;1.40;99.90
3896;DHT22;1963;48.804;8.358;2022-12-11T09:27:51;1.40;99.90
3896;DHT22;1963;48.804;8.358;2022-12-11T09:30:19;1.50;99.90
3896;DHT22;1963;48.804;8.358;2022-12-11T09:32:47;1.50;99.90
3896;DHT22;1963;48.804;8.358;2022-12-11T09:35:16;1.60;99.90
3896;DHT22;1963;48.804;8.358;2022-12-11T09:37:44;1.70;99.90
3896;DHT22;1963;48.804;8.358;2022-12-11T09:40:12;1.70;99.90
3896;DHT22;1963;48.804;8.358;2022-12-11T09:42:49;1.70;99.90
3896;DHT22;1963;48.804;8.358;2022-12-11T09:45:17;1.80;99.90
3896;DHT22;1963;48.804;8.358;2022-12-11T09:47:48;1.90;99.90
3896;DHT22;1963;48.804;8.358;2022-12-11T09:50:21;1.90;99.90
3896;DHT22;1963;48.804;8.358;2022-12-11T09:52:59;2.00;99.90
3896;DHT22;1963;48.804;8.358;2022-12-11T09:55:36;2.10;99.90
3896;DHT22;1963;48.804;8.358;2022-12-11T09:58:13;2.20;99.90
3896;DHT22;1963;48.804;8.358;2022-12-11T10:00:46;2.20;99.90
3896;DHT22;1963;48.804;8.358;2022-12-11T10:03:39;2.30;99.90
3896;DHT22;1963;48.804;8.358;2022-12-11T10:06:16;2.30;99.90
3896;DHT22;1963;48.804;8.358;2022-12-11T10:08:55;2.40;99.90
3896;DHT22;1963;48.804;8.358;2022-12-11T10:11:41;2.50;99.90
3896;DHT22;1963;48.804;8.358;2022-12-11T10:14:28;2.60;99.90
3896;DHT22;1963;48.804;8.358;2022-12-11T10:17:01;2.70;99.90
3896;DHT22;1963;48.804;8.358;2022-12-11T10:19:31;2.70;99.90
3896;DHT22;1963;48.804;8.358;2022-12-11T10:22:01;2.70;99.90
3896;DHT22;1963;48.804;8.358;2022-12-11T10:24:36;2.70;99.90
3896;DHT22;1963;48.804;8.358;2022-12-11T10:27:29;2.80;99.90
3896;DHT22;1963;48.804;8.358;2022-12-11T10:30:03;2.80;99.90
3896;DHT22;1963;48.804;8.358;2022-12-11T10:32:44;2.90;99.90
3896;DHT22;1963;48.804;8.358;2022-12-11T10:35:19;3.00;99.90
3896;DHT22;1963;48.804;8.358;2022-12-11T10:37:49;3.00;99.90
3896;DHT22;1963;48.804;8.358;2022-12-11T10:40:17;3.10;99.90
3896;DHT22;1963;48.804;8.358;2022-12-11T10:42:56;3.10;99.90
3896;DHT22;1963;48.804;8.358;2022-12-11T10:45:24;3.10;99.90
3896;DHT22;1963;48.804;8.358;2022-12-11T10:48:01;3.10;99.90
3896;DHT22;1963;48.804;8.358;2022-12-11T10:50:29;3.20;99.90
3896;DHT22;1963;48.804;8.358;2022-12-11T10:52:59;3.20;99.90
3896;DHT22;1963;48.804;8.358;2022-12-11T10:55:32;3.30;99.90
3896;DHT22;1963;48.804;8.358;2022-12-11T10:58:05;3.20;99.90
3896;DHT22;1963;48.804;8.358;2022-12-11T11:00:36;3.30;99.90
3896;DHT22;1963;48.804;8.358;2022-12-11T11:03:16;3.40;99.90
3896;DHT22;1963;48.804;8.358;2022-12-11T11:05:46;3.40;99.90
3896;DHT22;1963;48.804;8.358;2022-12-11T11:08:20;3.40;99.90
3896;DHT22;1963;48.804;8.358;2022-12-11T11:10:51;3.50;99.90
3896;DHT22;1963;48.804;8.358;2022-12-11T11:13:21;3.50;99.90
3896;DHT22;1963;48.804;8.358;2022-12-11T11:15:50;3.50;99.90
3896;DHT22;1963;48.804;8.358;2022-12-11T11:18:26;3.50;99.90
3896;DHT22;1963;48.804;8.358;2022-12-11T11:20:55;3.50;99.90
3896;DHT22;1963;48.804;8.358;2022-12-11T11:23:28;3.40;99.90
3896;DHT22;1963;48.804;8.358;2022-12-11T11:25:58;3.50;99.90
3896;DHT22;1963;48.804;8.358;2022-12-11T11:28:28;3.60;99.90
3896;DHT22;1963;48.804;8.358;2022-12-11T11:31:02;3.60;99.90
3896;DHT22;1963;48.804;8.358;2022-12-11T11:33:32;3.60;99.90
3896;DHT22;1963;48.804;8.358;2022-12-11T11:36:19;3.70;99.90
3896;DHT22;1963;48.804;8.358;2022-12-11T11:39:19;3.70;99.90
3896;DHT22;1963;48.804;8.358;2022-12-11T12:00:16;3.70;99.90
3896;DHT22;1963;48.804;8.358;2022-12-11T12:02:44;3.70;99.90
3896;DHT22;1963;48.804;8.358;2022-12-11T12:05:16;3.80;99.90
3896;DHT22;1963;48.804;8.358;2022-12-11T12:07:56;3.80;99.90
3896;DHT22;1963;48.804;8.358;2022-12-11T12:10:30;3.80;99.90
3896;DHT22;1963;48.804;8.358;2022-12-11T12:13:05;3.70;99.90
3896;DHT22;1963;48.804;8.358;2022-12-11T12:15:56;3.70;99.90
3896;DHT22;1963;48.804;8.358;2022-12-11T12:18:32;3.70;99.90
3896;DHT22;1963;48.804;8.358;2022-12-11T12:21:21;3.70;99.90
3896;DHT22;1963;48.804;8.358;2022-12-11T12:24:01;3.80;99.90
3896;DHT22;1963;48.804;8.358;2022-12-11T12:26:33;3.80;99.90
3896;DHT22;1963;48.804;8.358;2022-12-11T12:29:11;3.80;99.90
3896;DHT22;1963;48.804;8.358;2022-12-11T12:31:53;3.80;99.90
3896;DHT22;1963;48.804;8.358;2022-12-11T12:34:32;3.80;99.90
3896;DHT22;1963;48.804;8.358;2022-12-11T12:37:12;3.80;99.90
3896;DHT22;1963;48.804;8.358;2022-12-11T12:39:50;3.70;99.90
3896;DHT22;1963;48.804;8.358;2022-12-11T12:42:26;3.80;99.90
3896;DHT22;1963;48.804;8.358;2022-12-11T12:44:58;3.70;99.90
3896;DHT22;1963;48.804;8.358;2022-12-11T12:47:31;3.70;99.90
3896;DHT22;1963;48.804;8.358;2022-12-11T12:50:00;3.70;99.90
3896;DHT22;1963;48.804;8.358;2022-12-11T12:52:31;3.70;99.90
3896;DHT22;1963;48.804;8.358;2022-12-11T12:55:03;3.70;99.90
3896;DHT22;1963;48.804;8.358;2022-12-11T12:57:45;3.60;99.90
3896;DHT22;1963;48.804;8.358;2022-12-11T13:00:28;3.50;99.90
3896;DHT22;1963;48.804;8.358;2022-12-11T13:03:01;3.40;99.90
3896;DHT22;1963;48.804;8.358;2022-12-11T13:05:32;3.50;99.90
3896;DHT22;1963;48.804;8.358;2022-12-11T13:08:03;3.50;99.90
3896;DHT22;1963;48.804;8.358;2022-12-11T13:10:33;3.50;99.90
3896;DHT22;1963;48.804;8.358;2022-12-11T13:13:03;3.50;99.90
3896;DHT22;1963;48.804;8.358;2022-12-11T13:15:35;3.60;99.90
3896;DHT22;1963;48.804;8.358;2022-12-11T13:18:32;3.50;99.90
3896;DHT22;1963;48.804;8.358;2022-12-11T13:21:01;3.50;99.90
3896;DHT22;1963;48.804;8.358;2022-12-11T13:23:31;3.50;99.90
3896;DHT22;1963;48.804;8.358;2022-12-11T13:26:01;3.50;99.90
3896;DHT22;1963;48.804;8.358;2022-12-11T13:28:32;3.60;99.90
3896;DHT22;1963;48.804;8.358;2022-12-11T13:31:05;3.60;99.90
3896;DHT22;1963;48.804;8.358;2022-12-11T13:33:42;3.60;99.90
3896;DHT22;1963;48.804;8.358;2022-12-11T13:36:31;3.70;99.90
3896;DHT22;1963;48.804;8.358;2022-12-11T13:39:13;3.80;99.90
3896;DHT22;1963;48.804;8.358;2022-12-11T13:41:54;3.80;99.90
3896;DHT22;1963;48.804;8.358;2022-12-11T13:44:45;3.80;99.90
3896;DHT22;1963;48.804;8.358;2022-12-11T13:48:34;3.90;99.90
3896;DHT22;1963;48.804;8.358;2022-12-11T13:51:49;3.80;99.90
3896;DHT22;1963;48.804;8.358;2022-12-11T13:54:23;3.90;99.90
3896;DHT22;1963;48.804;8.358;2022-12-11T13:57:15;3.80;99.90
3896;DHT22;1963;48.804;8.358;2022-12-11T14:00:20;3.80;99.90
3896;DHT22;1963;48.804;8.358;2022-12-11T14:02:56;3.70;99.90
3896;DHT22;1963;48.804;8.358;2022-12-11T14:05:26;3.70;99.90
3896;DHT22;1963;48.804;8.358;2022-12-11T14:07:58;3.70;99.90
3896;DHT22;1963;48.804;8.358;2022-12-11T14:10:33;3.60;99.90
3896;DHT22;1963;48.804;8.358;2022-12-11T14:13:12;3.60;99.90
3896;DHT22;1963;48.804;8.358;2022-12-11T14:15:47;3.60;99.90
3896;DHT22;1963;48.804;8.358;2022-12-11T14:18:21;3.50;99.90
3896;DHT22;1963;48.804;8.358;2022-12-11T14:21:01;3.50;99.90
3896;DHT22;1963;48.804;8.358;2022-12-11T14:23:37;3.40;99.90
3896;DHT22;1963;48.804;8.358;2022-12-11T14:26:16;3.40;99.90
3896;DHT22;1963;48.804;8.358;2022-12-11T14:28:53;3.40;99.90
3896;DHT22;1963;48.804;8.358;2022-12-11T14:31:30;3.30;99.90
3896;DHT22;1963;48.804;8.358;2022-12-11T14:34:07;3.30;99.90
3896;DHT22;1963;48.804;8.358;2022-12-11T14:36:44;3.20;99.90
3896;DHT22;1963;48.804;8.358;2022-12-11T14:39:38;3.20;99.90
3896;DHT22;1963;48.804;8.358;2022-12-11T14:42:12;3.10;99.90
3896;DHT22;1963;48.804;8.358;2022-12-11T14:44:48;2.90;99.90
3896;DHT22;1963;48.804;8.358;2022-12-11T14:47:21;2.90;99.90
3896;DHT22;1963;48.804;8.358;2022-12-11T14:49:55;2.90;99.90
3896;DHT22;1963;48.804;8.358;2022-12-11T14:52:30;2.80;99.90
3896;DHT22;1963;48.804;8.358;2022-12-11T14:55:08;2.80;99.90
3896;DHT22;1963;48.804;8.358;2022-12-11T14:57:39;2.80;99.90
3896;DHT22;1963;48.804;8.358;2022-12-11T15:00:22;2.80;99.90
3896;DHT22;1963;48.804;8.358;2022-12-11T15:02:58;2.60;99.90
3896;DHT22;1963;48.804;8.358;2022-12-11T15:05:29;2.60;99.90
3896;DHT22;1963;48.804;8.358;2022-12-11T15:08:17;2.60;99.90
3896;DHT22;1963;48.804;8.358;2022-12-11T15:11:04;2.60;99.90
3896;DHT22;1963;48.804;8.358;2022-12-11T15:13:37;2.50;99.90
3896;DHT22;1963;48.804;8.358;2022-12-11T15:16:13;2.50;99.90
3896;DHT22;1963;48.804;8.358;2022-12-11T15:18:50;2.50;99.90
3896;DHT22;1963;48.804;8.358;2022-12-11T15:21:38;2.50;99.90
3896;DHT22;1963;48.804;8.358;2022-12-11T15:24:22;2.40;99.90
3896;DHT22;1963;48.804;8.358;2022-12-11T15:26:59;2.40;99.90
3896;DHT22;1963;48.804;8.358;2022-12-11T15:29:34;2.40;99.90
3896;DHT22;1963;48.804;8.358;2022-12-11T15:32:15;2.40;99.90
3896;DHT22;1963;48.804;8.358;2022-12-11T15:34:50;2.40;99.90
3896;DHT22;1963;48.804;8.358;2022-12-11T15:37:21;2.40;99.90
3896;DHT22;1963;48.804;8.358;2022-12-11T15:39:50;2.40;99.90
3896;DHT22;1963;48.804;8.358;2022-12-11T15:42:30;2.40;99.90
3896;DHT22;1963;48.804;8.358;2022-12-11T15:45:01;2.30;99.90
3896;DHT22;1963;48.804;8.358;2022-12-11T15:47:38;2.40;99.90
3896;DHT22;1963;48.804;8.358;2022-12-11T15:50:15;2.40;99.90
3896;DHT22;1963;48.804;8.358;2022-12-11T15:53:05;2.30;99.90
3896;DHT22;1963;48.804;8.358;2022-12-11T15:55:38;2.40;99.90
3896;DHT22;1963;48.804;8.358;2022-12-11T15:58:21;2.40;99.90
3896;DHT22;1963;48.804;8.358;2022-12-11T16:01:04;2.30;99.90
3896;DHT22;1963;48.804;8.358;2022-12-11T16:03:43;2.40;99.90
3896;DHT22;1963;48.804;8.358;2022-12-11T16:06:15;2.40;99.90
3896;DHT22;1963;48.804;8.358;2022-12-11T16:09:01;2.40;99.90
3896;DHT22;1963;48.804;8.358;2022-12-11T16:11:37;2.30;99.90
3896;DHT22;1963;48.804;8.358;2022-12-11T16:14:23;2.30;99.90
3896;DHT22;1963;48.804;8.358;2022-12-11T16:17:04;2.30;99.90
3896;DHT22;1963;48.804;8.358;2022-12-11T16:19:33;2.30;99.90
3896;DHT22;1963;48.804;8.358;2022-12-11T16:22:01;2.20;99.90
3896;DHT22;1963;48.804;8.358;2022-12-11T16:24:30;2.20;99.90
3896;DHT22;1963;48.804;8.358;2022-12-11T16:27:12;2.20;99.90
3896;DHT22;1963;48.804;8.358;2022-12-11T16:30:09;2.20;99.90
3896;DHT22;1963;48.804;8.358;2022-12-11T16:32:47;2.20;99.90
3896;DHT22;1963;48.804;8.358;2022-12-11T16:35:41;2.20;99.90
3896;DHT22;1963;48.804;8.358;2022-12-11T16:38:14;2.00;99.90
3896;DHT22;1963;48.804;8.358;2022-12-11T16:40:59;2.10;99.90
3896;DHT22;1963;48.804;8.358;2022-12-11T16:43:32;2.10;99.90
3896;DHT22;1963;48.804;8.358;2022-12-11T16:46:05;2.10;99.90
3896;DHT22;1963;48.804;8.358;2022-12-11T16:48:36;2.10;99.90
3896;DHT22;1963;48.804;8.358;2022-12-11T16:51:16;2.10;99.90
3896;DHT22;1963;48.804;8.358;2022-12-11T16:58:05;2.10;99.90
3896;DHT22;1963;48.804;8.358;2022-12-11T17:05:02;2.00;99.90
3896;DHT22;1963;48.804;8.358;2022-12-11T17:11:19;2.00;99.90
3896;DHT22;1963;48.804;8.358;2022-12-11T17:17:10;2.00;99.90
3896;DHT22;1963;48.804;8.358;2022-12-11T17:19:51;2.00;99.90
3896;DHT22;1963;48.804;8.358;2022-12-11T17:22:21;2.00;99.90
3896;DHT22;1963;48.804;8.358;2022-12-11T17:25:32;2.00;99.90
3896;DHT22;1963;48.804;8.358;2022-12-11T17:28:03;2.00;99.90
3896;DHT22;1963;48.804;8.358;2022-12-11T17:30:31;2.00;99.90
3896;DHT22;1963;48.804;8.358;2022-12-11T17:33:00;1.90;99.90
3896;DHT22;1963;48.804;8.358;2022-12-11T17:35:48;1.90;99.90
3896;DHT22;1963;48.804;8.358;2022-12-11T17:38:24;1.90;99.90
3896;DHT22;1963;48.804;8.358;2022-12-11T17:40:52;1.90;99.90
3896;DHT22;1963;48.804;8.358;2022-12-11T17:43:20;1.90;99.90
3896;DHT22;1963;48.804;8.358;2022-12-11T17:45:49;1.80;99.90
3896;DHT22;1963;48.804;8.358;2022-12-11T17:48:18;1.70;99.90
3896;DHT22;1963;48.804;8.358;2022-12-11T17:50:51;1.70;99.90
3896;DHT22;1963;48.804;8.358;2022-12-11T17:53:20;1.70;99.90
3896;DHT22;1963;48.804;8.358;2022-12-11T17:55:49;1.60;99.90
3896;DHT22;1963;48.804;8.358;2022-12-11T17:58:19;1.50;99.90
3896;DHT22;1963;48.804;8.358;2022-12-11T18:00:49;1.50;99.90
3896;DHT22;1963;48.804;8.358;2022-12-11T18:03:20;1.50;99.90